sensor_id;sensor_type;location;lat;lon;timestamp;temperature;humidity
31729;DHT22;18309;43.658;1.312;2023-05-16T00:00:07;15.40;99.90
31729;DHT22;18309;43.658;1.312;2023-05-16T00:02:36;15.40;99.90
31729;DHT22;18309;43.658;1.312;2023-05-16T00:05:04;15.40;99.90
31729;DHT22;18309;43.658;1.312;2023-05-16T00:07:32;15.40;99.90
31729;DHT22;18309;43.658;1.312;2023-05-16T00:09:59;15.30;99.90
31729;DHT22;18309;43.658;1.312;2023-05-16T00:12:25;15.30;99.90
31729;DHT22;18309;43.658;1.312;2023-05-16T00:14:53;15.30;99.90
31729;DHT22;18309;43.658;1.312;2023-05-16T00:17:19;15.30;99.90
31729;DHT22;18309;43.658;1.312;2023-05-16T00:19:48;15.30;99.90
31729;DHT22;18309;43.658;1.312;2023-05-16T00:22:14;15.30;99.90
31729;DHT22;18309;43.658;1.312;2023-05-16T00:24:41;15.20;99.90
31729;DHT22;18309;43.658;1.312;2023-05-16T00:27:06;15.20;99.90
31729;DHT22;18309;43.658;1.312;2023-05-16T00:29:33;15.20;99.90
31729;DHT22;18309;43.658;1.312;2023-05-16T00:31:59;15.20;99.90
31729;DHT22;18309;43.658;1.312;2023-05-16T00:34:25;15.20;99.90
31729;DHT22;18309;43.658;1.312;2023-05-16T00:36:51;15.20;99.90
31729;DHT22;18309;43.658;1.312;2023-05-16T00:39:17;15.20;99.90
31729;DHT22;18309;43.658;1.312;2023-05-16T00:41:43;15.20;99.90
31729;DHT22;18309;43.658;1.312;2023-05-16T00:44:09;15.10;99.90
31729;DHT22;18309;43.658;1.312;2023-05-16T00:46:35;15.10;99.90
31729;DHT22;18309;43.658;1.312;2023-05-16T00:49:00;15.10;99.90
31729;DHT22;18309;43.658;1.312;2023-05-16T00:51:26;15.10;99.90
31729;DHT22;18309;43.658;1.312;2023-05-16T00:53:53;15.10;99.90
31729;DHT22;18309;43.658;1.312;2023-05-16T00:56:20;15.10;99.90
31729;DHT22;18309;43.658;1.312;2023-05-16T00:58:46;15.10;99.90
31729;DHT22;18309;43.658;1.312;2023-05-16T01:01:12;15.00;99.90
31729;DHT22;18309;43.658;1.312;2023-05-16T01:03:38;15.00;99.90
31729;DHT22;18309;43.658;1.312;2023-05-16T01:06:05;15.00;99.90
31729;DHT22;18309;43.658;1.312;2023-05-16T01:08:31;15.00;99.90
31729;DHT22;18309;43.658;1.312;2023-05-16T01:11:11;15.00;99.90
31729;DHT22;18309;43.658;1.312;2023-05-16T01:13:52;15.00;99.90
31729;DHT22;18309;43.658;1.312;2023-05-16T01:16:38;15.00;99.90
31729;DHT22;18309;43.658;1.312;2023-05-16T01:24:26;14.90;99.90
31729;DHT22;18309;43.658;1.312;2023-05-16T01:26:58;14.90;99.90
31729;DHT22;18309;43.658;1.312;2023-05-16T01:29:24;14.90;99.90
31729;DHT22;18309;43.658;1.312;2023-05-16T01:31:50;14.90;99.90
31729;DHT22;18309;43.658;1.312;2023-05-16T01:34:16;14.90;99.90
31729;DHT22;18309;43.658;1.312;2023-05-16T01:36:55;14.90;99.90
31729;DHT22;18309;43.658;1.312;2023-05-16T01:39:46;14.90;99.90
31729;DHT22;18309;43.658;1.312;2023-05-16T01:42:15;14.90;99.90
31729;DHT22;18309;43.658;1.312;2023-05-16T01:44:47;14.90;99.90
31729;DHT22;18309;43.658;1.312;2023-05-16T01:47:16;14.80;99.90
31729;DHT22;18309;43.658;1.312;2023-05-16T01:49:50;14.80;99.90
31729;DHT22;18309;43.658;1.312;2023-05-16T01:52:25;14.80;99.90
31729;DHT22;18309;43.658;1.312;2023-05-16T01:54:53;14.80;99.90
31729;DHT22;18309;43.658;1.312;2023-05-16T01:57:22;14.80;99.90
31729;DHT22;18309;43.658;1.312;2023-05-16T01:59:49;14.80;99.90
31729;DHT22;18309;43.658;1.312;2023-05-16T02:02:17;14.80;99.90
31729;DHT22;18309;43.658;1.312;2023-05-16T02:04:43;14.80;99.90
31729;DHT22;18309;43.658;1.312;2023-05-16T02:07:09;14.70;99.90
31729;DHT22;18309;43.658;1.312;2023-05-16T02:09:35;14.70;99.90
31729;DHT22;18309;43.658;1.312;2023-05-16T02:12:00;14.70;99.90
31729;DHT22;18309;43.658;1.312;2023-05-16T02:14:26;14.70;99.90
31729;DHT22;18309;43.658;1.312;2023-05-16T02:16:52;14.70;99.90
31729;DHT22;18309;43.658;1.312;2023-05-16T02:19:19;14.70;99.90
31729;DHT22;18309;43.658;1.312;2023-05-16T02:21:45;14.70;99.90
31729;DHT22;18309;43.658;1.312;2023-05-16T02:24:10;14.60;99.90
31729;DHT22;18309;43.658;1.312;2023-05-16T02:26:36;14.60;99.90
31729;DHT22;18309;43.658;1.312;2023-05-16T02:29:01;14.60;99.90
31729;DHT22;18309;43.658;1.312;2023-05-16T02:31:32;14.60;99.90
31729;DHT22;18309;43.658;1.312;2023-05-16T02:33:59;14.60;99.90
31729;DHT22;18309;43.658;1.312;2023-05-16T02:36:25;14.60;99.90
31729;DHT22;18309;43.658;1.312;2023-05-16T02:38:50;14.60;99.90
31729;DHT22;18309;43.658;1.312;2023-05-16T02:41:16;14.60;99.90
31729;DHT22;18309;43.658;1.312;2023-05-16T02:43:42;14.60;99.90
31729;DHT22;18309;43.658;1.312;2023-05-16T02:46:31;14.60;99.90
31729;DHT22;18309;43.658;1.312;2023-05-16T02:48:57;14.60;99.90
31729;DHT22;18309;43.658;1.312;2023-05-16T02:51:25;14.50;99.90
31729;DHT22;18309;43.658;1.312;2023-05-16T02:53:52;14.50;99.90
31729;DHT22;18309;43.658;1.312;2023-05-16T02:56:18;14.50;99.90
31729;DHT22;18309;43.658;1.312;2023-05-16T02:58:47;14.50;99.90
31729;DHT22;18309;43.658;1.312;2023-05-16T03:01:13;14.50;99.90
31729;DHT22;18309;43.658;1.312;2023-05-16T03:03:39;14.50;99.90
31729;DHT22;18309;43.658;1.312;2023-05-16T03:06:05;14.50;99.90
31729;DHT22;18309;43.658;1.312;2023-05-16T03:08:31;14.50;99.90
31729;DHT22;18309;43.658;1.312;2023-05-16T03:10:57;14.50;99.90
31729;DHT22;18309;43.658;1.312;2023-05-16T03:13:23;14.50;99.90
31729;DHT22;18309;43.658;1.312;2023-05-16T03:15:48;14.50;99.90
31729;DHT22;18309;43.658;1.312;2023-05-16T03:18:14;14.50;99.90
31729;DHT22;18309;43.658;1.312;2023-05-16T03:20:40;14.40;99.90
31729;DHT22;18309;43.658;1.312;2023-05-16T03:23:06;14.40;99.90
31729;DHT22;18309;43.658;1.312;2023-05-16T03:25:36;14.40;99.90
31729;DHT22;18309;43.658;1.312;2023-05-16T03:28:06;14.40;99.90
31729;DHT22;18309;43.658;1.312;2023-05-16T03:30:35;14.40;99.90
31729;DHT22;18309;43.658;1.312;2023-05-16T03:33:00;14.40;99.90
31729;DHT22;18309;43.658;1.312;2023-05-16T03:35:27;14.40;99.90
31729;DHT22;18309;43.658;1.312;2023-05-16T03:37:53;14.40;99.90
31729;DHT22;18309;43.658;1.312;2023-05-16T03:40:19;14.30;99.90
31729;DHT22;18309;43.658;1.312;2023-05-16T03:42:45;14.30;99.90
31729;DHT22;18309;43.658;1.312;2023-05-16T03:45:11;14.30;99.90
31729;DHT22;18309;43.658;1.312;2023-05-16T03:47:37;14.30;99.90
31729;DHT22;18309;43.658;1.312;2023-05-16T03:50:03;14.30;99.90
31729;DHT22;18309;43.658;1.312;2023-05-16T03:52:29;14.30;99.90
31729;DHT22;18309;43.658;1.312;2023-05-16T03:54:55;14.30;99.90
31729;DHT22;18309;43.658;1.312;2023-05-16T03:57:21;14.30;99.90
31729;DHT22;18309;43.658;1.312;2023-05-16T03:59:47;14.30;99.90
31729;DHT22;18309;43.658;1.312;2023-05-16T04:02:13;14.30;99.90
31729;DHT22;18309;43.658;1.312;2023-05-16T04:04:38;14.30;99.90
31729;DHT22;18309;43.658;1.312;2023-05-16T04:07:04;14.30;99.90
31729;DHT22;18309;43.658;1.312;2023-05-16T04:09:30;14.30;99.90
31729;DHT22;18309;43.658;1.312;2023-05-16T04:11:57;14.30;99.90
31729;DHT22;18309;43.658;1.312;2023-05-16T04:14:26;14.30;99.90
31729;DHT22;18309;43.658;1.312;2023-05-16T04:16:52;14.20;99.90
31729;DHT22;18309;43.658;1.312;2023-05-16T04:19:17;14.20;99.90
31729;DHT22;18309;43.658;1.312;2023-05-16T04:21:43;14.20;99.90
31729;DHT22;18309;43.658;1.312;2023-05-16T04:24:09;14.20;99.90
31729;DHT22;18309;43.658;1.312;2023-05-16T04:26:35;14.20;99.90
31729;DHT22;18309;43.658;1.312;2023-05-16T04:29:02;14.20;99.90
31729;DHT22;18309;43.658;1.312;2023-05-16T04:31:27;14.20;99.90
31729;DHT22;18309;43.658;1.312;2023-05-16T04:33:53;14.20;99.90
31729;DHT22;18309;43.658;1.312;2023-05-16T04:36:20;14.20;99.90
31729;DHT22;18309;43.658;1.312;2023-05-16T04:38:46;14.20;99.90
31729;DHT22;18309;43.658;1.312;2023-05-16T04:41:12;14.20;99.90
31729;DHT22;18309;43.658;1.312;2023-05-16T04:43:38;14.20;99.90
31729;DHT22;18309;43.658;1.312;2023-05-16T04:46:05;14.20;99.90
31729;DHT22;18309;43.658;1.312;2023-05-16T04:48:34;14.20;99.90
31729;DHT22;18309;43.658;1.312;2023-05-16T04:51:00;14.20;99.90
31729;DHT22;18309;43.658;1.312;2023-05-16T04:53:26;14.20;99.90
31729;DHT22;18309;43.658;1.312;2023-05-16T04:55:52;14.20;99.90
31729;DHT22;18309;43.658;1.312;2023-05-16T04:58:17;14.10;99.90
31729;DHT22;18309;43.658;1.312;2023-05-16T05:00:43;14.10;99.90
31729;DHT22;18309;43.658;1.312;2023-05-16T05:03:09;14.10;99.90
31729;DHT22;18309;43.658;1.312;2023-05-16T05:05:34;14.10;99.90
31729;DHT22;18309;43.658;1.312;2023-05-16T05:08:00;14.10;99.90
31729;DHT22;18309;43.658;1.312;2023-05-16T05:10:26;14.10;99.90
31729;DHT22;18309;43.658;1.312;2023-05-16T05:12:53;14.10;99.90
31729;DHT22;18309;43.658;1.312;2023-05-16T05:15:18;14.10;99.90
31729;DHT22;18309;43.658;1.312;2023-05-16T05:17:44;13.60;99.90
31729;DHT22;18309;43.658;1.312;2023-05-16T05:20:11;13.10;99.90
31729;DHT22;18309;43.658;1.312;2023-05-16T05:22:36;12.90;99.90
31729;DHT22;18309;43.658;1.312;2023-05-16T05:25:03;12.90;99.90
31729;DHT22;18309;43.658;1.312;2023-05-16T05:27:28;12.80;99.90
31729;DHT22;18309;43.658;1.312;2023-05-16T05:29:54;12.70;99.90
31729;DHT22;18309;43.658;1.312;2023-05-16T05:32:20;12.70;99.90
31729;DHT22;18309;43.658;1.312;2023-05-16T05:34:46;12.60;99.90
31729;DHT22;18309;43.658;1.312;2023-05-16T05:37:12;12.60;99.90
31729;DHT22;18309;43.658;1.312;2023-05-16T05:39:38;12.60;99.90
31729;DHT22;18309;43.658;1.312;2023-05-16T05:42:03;12.60;99.90
31729;DHT22;18309;43.658;1.312;2023-05-16T05:44:29;12.60;99.90
31729;DHT22;18309;43.658;1.312;2023-05-16T05:46:56;12.60;99.90
31729;DHT22;18309;43.658;1.312;2023-05-16T05:49:23;12.60;99.90
31729;DHT22;18309;43.658;1.312;2023-05-16T05:51:49;12.50;99.90
31729;DHT22;18309;43.658;1.312;2023-05-16T05:54:18;12.50;99.90
31729;DHT22;18309;43.658;1.312;2023-05-16T05:56:44;12.50;99.90
31729;DHT22;18309;43.658;1.312;2023-05-16T05:59:10;12.50;99.90
31729;DHT22;18309;43.658;1.312;2023-05-16T06:01:36;12.60;99.90
31729;DHT22;18309;43.658;1.312;2023-05-16T06:04:02;12.50;99.90
31729;DHT22;18309;43.658;1.312;2023-05-16T06:06:28;12.50;99.90
31729;DHT22;18309;43.658;1.312;2023-05-16T06:08:54;12.50;99.90
31729;DHT22;18309;43.658;1.312;2023-05-16T06:11:19;12.50;99.90
31729;DHT22;18309;43.658;1.312;2023-05-16T06:13:46;12.50;99.90
31729;DHT22;18309;43.658;1.312;2023-05-16T06:16:12;12.50;99.90
31729;DHT22;18309;43.658;1.312;2023-05-16T06:18:38;12.40;99.90
31729;DHT22;18309;43.658;1.312;2023-05-16T06:21:04;12.50;99.90
31729;DHT22;18309;43.658;1.312;2023-05-16T06:23:30;12.60;99.90
31729;DHT22;18309;43.658;1.312;2023-05-16T06:25:56;12.60;99.90
31729;DHT22;18309;43.658;1.312;2023-05-16T06:28:22;12.60;99.90
31729;DHT22;18309;43.658;1.312;2023-05-16T06:30:48;12.50;99.90
31729;DHT22;18309;43.658;1.312;2023-05-16T06:33:19;12.60;99.90
31729;DHT22;18309;43.658;1.312;2023-05-16T06:35:45;12.60;99.90
31729;DHT22;18309;43.658;1.312;2023-05-16T06:38:10;12.60;99.90
31729;DHT22;18309;43.658;1.312;2023-05-16T06:40:36;12.60;99.90
31729;DHT22;18309;43.658;1.312;2023-05-16T06:43:02;12.60;99.90
31729;DHT22;18309;43.658;1.312;2023-05-16T06:45:28;12.70;99.90
31729;DHT22;18309;43.658;1.312;2023-05-16T06:47:54;12.60;99.90
31729;DHT22;18309;43.658;1.312;2023-05-16T06:50:21;12.60;99.90
31729;DHT22;18309;43.658;1.312;2023-05-16T06:52:47;12.70;99.90
31729;DHT22;18309;43.658;1.312;2023-05-16T06:55:12;12.80;99.90
31729;DHT22;18309;43.658;1.312;2023-05-16T06:57:38;12.70;99.90
31729;DHT22;18309;43.658;1.312;2023-05-16T07:00:04;12.70;99.90
31729;DHT22;18309;43.658;1.312;2023-05-16T07:02:30;12.90;99.90
31729;DHT22;18309;43.658;1.312;2023-05-16T07:04:56;12.90;99.90
31729;DHT22;18309;43.658;1.312;2023-05-16T07:07:22;12.90;99.90
31729;DHT22;18309;43.658;1.312;2023-05-16T07:09:47;12.90;99.90
31729;DHT22;18309;43.658;1.312;2023-05-16T07:12:13;12.90;99.90
31729;DHT22;18309;43.658;1.312;2023-05-16T07:14:39;12.90;99.90
31729;DHT22;18309;43.658;1.312;2023-05-16T07:17:05;12.90;99.90
31729;DHT22;18309;43.658;1.312;2023-05-16T07:19:31;12.90;99.90
31729;DHT22;18309;43.658;1.312;2023-05-16T07:21:56;12.80;99.90
31729;DHT22;18309;43.658;1.312;2023-05-16T07:24:22;12.80;99.90
31729;DHT22;18309;43.658;1.312;2023-05-16T07:26:48;12.80;99.90
31729;DHT22;18309;43.658;1.312;2023-05-16T07:29:13;12.90;99.90
31729;DHT22;18309;43.658;1.312;2023-05-16T07:31:39;12.80;99.90
31729;DHT22;18309;43.658;1.312;2023-05-16T07:34:05;12.90;99.90
31729;DHT22;18309;43.658;1.312;2023-05-16T07:36:32;12.90;99.90
31729;DHT22;18309;43.658;1.312;2023-05-16T07:38:58;12.90;99.90
31729;DHT22;18309;43.658;1.312;2023-05-16T07:41:23;12.90;99.90
31729;DHT22;18309;43.658;1.312;2023-05-16T07:43:50;13.00;99.90
31729;DHT22;18309;43.658;1.312;2023-05-16T07:46:17;13.00;99.90
31729;DHT22;18309;43.658;1.312;2023-05-16T07:48:42;13.00;99.90
31729;DHT22;18309;43.658;1.312;2023-05-16T07:51:08;13.10;99.90
31729;DHT22;18309;43.658;1.312;2023-05-16T07:53:34;13.20;99.90
31729;DHT22;18309;43.658;1.312;2023-05-16T07:55:59;13.10;99.90
31729;DHT22;18309;43.658;1.312;2023-05-16T07:58:25;13.10;99.90
31729;DHT22;18309;43.658;1.312;2023-05-16T08:00:51;13.20;99.90
31729;DHT22;18309;43.658;1.312;2023-05-16T08:03:17;13.20;99.90
31729;DHT22;18309;43.658;1.312;2023-05-16T08:05:42;13.20;99.90
31729;DHT22;18309;43.658;1.312;2023-05-16T08:08:08;13.30;99.90
31729;DHT22;18309;43.658;1.312;2023-05-16T08:10:34;13.30;99.90
31729;DHT22;18309;43.658;1.312;2023-05-16T08:12:59;13.30;99.90
31729;DHT22;18309;43.658;1.312;2023-05-16T08:15:26;13.40;99.90
31729;DHT22;18309;43.658;1.312;2023-05-16T08:17:56;13.40;99.90
31729;DHT22;18309;43.658;1.312;2023-05-16T08:20:22;13.50;99.90
31729;DHT22;18309;43.658;1.312;2023-05-16T08:22:47;13.70;99.90
31729;DHT22;18309;43.658;1.312;2023-05-16T08:25:13;14.00;99.90
31729;DHT22;18309;43.658;1.312;2023-05-16T08:27:39;14.20;99.90
31729;DHT22;18309;43.658;1.312;2023-05-16T08:30:05;14.50;99.90
31729;DHT22;18309;43.658;1.312;2023-05-16T08:32:31;14.50;99.90
31729;DHT22;18309;43.658;1.312;2023-05-16T08:34:57;14.40;99.90
31729;DHT22;18309;43.658;1.312;2023-05-16T08:37:23;14.50;99.90
31729;DHT22;18309;43.658;1.312;2023-05-16T08:39:49;14.60;99.90
31729;DHT22;18309;43.658;1.312;2023-05-16T08:42:14;14.60;99.90
31729;DHT22;18309;43.658;1.312;2023-05-16T08:44:40;15.00;99.90
31729;DHT22;18309;43.658;1.312;2023-05-16T08:47:17;14.70;99.90
31729;DHT22;18309;43.658;1.312;2023-05-16T08:49:46;14.40;99.90
31729;DHT22;18309;43.658;1.312;2023-05-16T08:52:13;14.30;99.90
31729;DHT22;18309;43.658;1.312;2023-05-16T08:54:43;14.20;99.90
31729;DHT22;18309;43.658;1.312;2023-05-16T08:57:10;14.20;99.90
31729;DHT22;18309;43.658;1.312;2023-05-16T08:59:36;14.20;99.90
31729;DHT22;18309;43.658;1.312;2023-05-16T09:02:03;14.20;99.90
31729;DHT22;18309;43.658;1.312;2023-05-16T09:04:30;14.20;99.90
31729;DHT22;18309;43.658;1.312;2023-05-16T09:06:56;14.10;99.90
31729;DHT22;18309;43.658;1.312;2023-05-16T09:09:23;14.10;99.90
31729;DHT22;18309;43.658;1.312;2023-05-16T09:11:48;14.10;99.90
31729;DHT22;18309;43.658;1.312;2023-05-16T09:14:16;14.10;99.90
31729;DHT22;18309;43.658;1.312;2023-05-16T09:16:43;14.10;99.90
31729;DHT22;18309;43.658;1.312;2023-05-16T09:19:11;14.10;99.90
31729;DHT22;18309;43.658;1.312;2023-05-16T09:21:39;14.20;99.90
31729;DHT22;18309;43.658;1.312;2023-05-16T09:24:06;14.30;99.90
31729;DHT22;18309;43.658;1.312;2023-05-16T09:26:37;14.30;99.90
31729;DHT22;18309;43.658;1.312;2023-05-16T09:29:12;14.30;99.90
31729;DHT22;18309;43.658;1.312;2023-05-16T09:31:38;14.30;99.90
31729;DHT22;18309;43.658;1.312;2023-05-16T09:34:07;14.50;99.90
31729;DHT22;18309;43.658;1.312;2023-05-16T09:36:33;14.60;99.90
31729;DHT22;18309;43.658;1.312;2023-05-16T09:39:00;14.80;99.90
31729;DHT22;18309;43.658;1.312;2023-05-16T09:41:26;14.90;99.90
31729;DHT22;18309;43.658;1.312;2023-05-16T09:43:51;14.90;99.90
31729;DHT22;18309;43.658;1.312;2023-05-16T09:46:17;14.90;99.90
31729;DHT22;18309;43.658;1.312;2023-05-16T09:48:47;14.70;99.90
31729;DHT22;18309;43.658;1.312;2023-05-16T09:51:13;14.60;99.90
31729;DHT22;18309;43.658;1.312;2023-05-16T09:53:40;14.50;99.90
31729;DHT22;18309;43.658;1.312;2023-05-16T09:56:13;14.50;99.90
31729;DHT22;18309;43.658;1.312;2023-05-16T09:58:43;14.40;99.90
31729;DHT22;18309;43.658;1.312;2023-05-16T10:01:10;14.40;99.90
31729;DHT22;18309;43.658;1.312;2023-05-16T10:03:38;14.30;99.90
31729;DHT22;18309;43.658;1.312;2023-05-16T10:06:05;14.20;99.90
31729;DHT22;18309;43.658;1.312;2023-05-16T10:08:33;14.10;99.90
31729;DHT22;18309;43.658;1.312;2023-05-16T10:11:03;14.10;99.90
31729;DHT22;18309;43.658;1.312;2023-05-16T10:13:33;14.00;99.90
31729;DHT22;18309;43.658;1.312;2023-05-16T10:16:05;14.00;99.90
31729;DHT22;18309;43.658;1.312;2023-05-16T10:18:31;14.00;99.90
31729;DHT22;18309;43.658;1.312;2023-05-16T10:21:04;14.00;99.90
31729;DHT22;18309;43.658;1.312;2023-05-16T10:23:32;14.10;99.90
31729;DHT22;18309;43.658;1.312;2023-05-16T10:26:00;14.20;99.90
31729;DHT22;18309;43.658;1.312;2023-05-16T10:28:27;14.30;99.90
31729;DHT22;18309;43.658;1.312;2023-05-16T10:30:54;14.40;99.90
31729;DHT22;18309;43.658;1.312;2023-05-16T10:33:20;14.50;99.90
31729;DHT22;18309;43.658;1.312;2023-05-16T10:35:46;14.60;99.90
31729;DHT22;18309;43.658;1.312;2023-05-16T10:38:15;14.80;99.90
31729;DHT22;18309;43.658;1.312;2023-05-16T10:40:42;14.90;99.90
31729;DHT22;18309;43.658;1.312;2023-05-16T10:43:08;14.90;99.90
31729;DHT22;18309;43.658;1.312;2023-05-16T10:45:40;14.90;99.90
31729;DHT22;18309;43.658;1.312;2023-05-16T10:48:06;15.00;99.90
31729;DHT22;18309;43.658;1.312;2023-05-16T10:50:42;14.90;99.90
31729;DHT22;18309;43.658;1.312;2023-05-16T10:53:31;14.90;99.90
31729;DHT22;18309;43.658;1.312;2023-05-16T11:01:19;14.80;99.90
31729;DHT22;18309;43.658;1.312;2023-05-16T11:16:53;15.20;99.90
31729;DHT22;18309;43.658;1.312;2023-05-16T11:19:29;15.40;99.10
31729;DHT22;18309;43.658;1.312;2023-05-16T11:22:32;15.40;98.90
31729;DHT22;18309;43.658;1.312;2023-05-16T11:27:33;15.40;99.10
31729;DHT22;18309;43.658;1.312;2023-05-16T11:32:36;15.50;98.70
31729;DHT22;18309;43.658;1.312;2023-05-16T11:35:02;15.50;99.00
31729;DHT22;18309;43.658;1.312;2023-05-16T11:37:28;15.50;99.10
31729;DHT22;18309;43.658;1.312;2023-05-16T11:39:59;15.70;98.00
31729;DHT22;18309;43.658;1.312;2023-05-16T11:42:32;15.70;98.10
31729;DHT22;18309;43.658;1.312;2023-05-16T11:47:35;15.70;97.20
31729;DHT22;18309;43.658;1.312;2023-05-16T11:50:09;15.50;97.10
31729;DHT22;18309;43.658;1.312;2023-05-16T11:52:35;15.50;96.80
31729;DHT22;18309;43.658;1.312;2023-05-16T11:55:03;15.40;96.20
31729;DHT22;18309;43.658;1.312;2023-05-16T11:57:31;15.40;97.10
31729;DHT22;18309;43.658;1.312;2023-05-16T12:00:07;15.50;96.70
31729;DHT22;18309;43.658;1.312;2023-05-16T12:02:38;15.60;96.60
31729;DHT22;18309;43.658;1.312;2023-05-16T12:05:08;15.90;95.50
31729;DHT22;18309;43.658;1.312;2023-05-16T12:07:35;15.80;95.80
31729;DHT22;18309;43.658;1.312;2023-05-16T12:12:32;15.60;98.00
31729;DHT22;18309;43.658;1.312;2023-05-16T12:14:58;15.80;97.30
31729;DHT22;18309;43.658;1.312;2023-05-16T12:17:24;15.80;97.30
31729;DHT22;18309;43.658;1.312;2023-05-16T12:19:50;15.80;97.10
31729;DHT22;18309;43.658;1.312;2023-05-16T12:22:16;15.70;97.30
31729;DHT22;18309;43.658;1.312;2023-05-16T12:24:46;15.50;96.80
31729;DHT22;18309;43.658;1.312;2023-05-16T12:27:12;15.60;97.70
31729;DHT22;18309;43.658;1.312;2023-05-16T12:29:49;15.70;97.50
31729;DHT22;18309;43.658;1.312;2023-05-16T12:32:18;15.60;98.00
31729;DHT22;18309;43.658;1.312;2023-05-16T12:34:52;15.70;98.00
31729;DHT22;18309;43.658;1.312;2023-05-16T12:37:20;15.60;97.20
31729;DHT22;18309;43.658;1.312;2023-05-16T12:39:46;15.70;96.30
31729;DHT22;18309;43.658;1.312;2023-05-16T12:42:13;15.80;96.30
31729;DHT22;18309;43.658;1.312;2023-05-16T12:44:39;15.80;95.50
31729;DHT22;18309;43.658;1.312;2023-05-16T12:47:10;15.80;95.60
31729;DHT22;18309;43.658;1.312;2023-05-16T12:49:36;15.80;94.80
31729;DHT22;18309;43.658;1.312;2023-05-16T12:52:03;15.90;94.90
31729;DHT22;18309;43.658;1.312;2023-05-16T12:54:30;16.00;94.20
31729;DHT22;18309;43.658;1.312;2023-05-16T12:56:55;16.10;94.70
31729;DHT22;18309;43.658;1.312;2023-05-16T12:59:21;16.20;94.80
31729;DHT22;18309;43.658;1.312;2023-05-16T13:01:47;16.30;94.70
31729;DHT22;18309;43.658;1.312;2023-05-16T13:04:13;16.30;94.50
31729;DHT22;18309;43.658;1.312;2023-05-16T13:06:43;16.10;92.00
31729;DHT22;18309;43.658;1.312;2023-05-16T13:09:08;16.00;92.10
31729;DHT22;18309;43.658;1.312;2023-05-16T13:11:35;16.00;92.40
31729;DHT22;18309;43.658;1.312;2023-05-16T13:14:01;16.00;92.90
31729;DHT22;18309;43.658;1.312;2023-05-16T13:16:27;16.20;93.20
31729;DHT22;18309;43.658;1.312;2023-05-16T13:18:53;16.20;93.60
31729;DHT22;18309;43.658;1.312;2023-05-16T13:21:18;16.10;93.60
31729;DHT22;18309;43.658;1.312;2023-05-16T13:23:44;16.00;91.80
31729;DHT22;18309;43.658;1.312;2023-05-16T13:26:10;15.90;92.30
31729;DHT22;18309;43.658;1.312;2023-05-16T13:28:35;17.20;91.10
31729;DHT22;18309;43.658;1.312;2023-05-16T13:31:01;17.80;87.60
31729;DHT22;18309;43.658;1.312;2023-05-16T13:33:28;18.60;85.70
31729;DHT22;18309;43.658;1.312;2023-05-16T13:35:54;19.30;82.90
31729;DHT22;18309;43.658;1.312;2023-05-16T13:38:21;20.60;80.80
31729;DHT22;18309;43.658;1.312;2023-05-16T13:40:47;19.50;78.30
31729;DHT22;18309;43.658;1.312;2023-05-16T13:43:12;19.00;82.20
31729;DHT22;18309;43.658;1.312;2023-05-16T13:45:40;17.70;83.40
31729;DHT22;18309;43.658;1.312;2023-05-16T13:48:05;18.50;84.20
31729;DHT22;18309;43.658;1.312;2023-05-16T13:50:31;18.40;84.00
31729;DHT22;18309;43.658;1.312;2023-05-16T13:52:57;17.80;84.80
31729;DHT22;18309;43.658;1.312;2023-05-16T13:55:23;17.50;86.10
31729;DHT22;18309;43.658;1.312;2023-05-16T13:57:49;17.50;86.60
31729;DHT22;18309;43.658;1.312;2023-05-16T14:00:14;17.20;86.60
31729;DHT22;18309;43.658;1.312;2023-05-16T14:02:41;17.00;86.80
31729;DHT22;18309;43.658;1.312;2023-05-16T14:05:07;16.90;87.10
31729;DHT22;18309;43.658;1.312;2023-05-16T14:07:34;17.00;83.70
31729;DHT22;18309;43.658;1.312;2023-05-16T14:10:00;17.10;83.40
31729;DHT22;18309;43.658;1.312;2023-05-16T14:12:26;16.90;86.30
31729;DHT22;18309;43.658;1.312;2023-05-16T14:14:52;16.80;88.20
31729;DHT22;18309;43.658;1.312;2023-05-16T14:17:20;16.70;87.40
31729;DHT22;18309;43.658;1.312;2023-05-16T14:19:46;16.80;88.70
31729;DHT22;18309;43.658;1.312;2023-05-16T14:22:11;16.90;87.10
31729;DHT22;18309;43.658;1.312;2023-05-16T14:24:37;17.20;86.20
31729;DHT22;18309;43.658;1.312;2023-05-16T14:27:03;17.60;84.90
31729;DHT22;18309;43.658;1.312;2023-05-16T14:29:29;17.40;82.40
31729;DHT22;18309;43.658;1.312;2023-05-16T14:31:55;17.10;82.80
31729;DHT22;18309;43.658;1.312;2023-05-16T14:34:20;16.80;84.70
31729;DHT22;18309;43.658;1.312;2023-05-16T14:36:49;16.80;86.30
31729;DHT22;18309;43.658;1.312;2023-05-16T14:39:15;16.80;87.10
31729;DHT22;18309;43.658;1.312;2023-05-16T14:41:41;16.90;86.70
31729;DHT22;18309;43.658;1.312;2023-05-16T14:44:06;16.80;86.40
31729;DHT22;18309;43.658;1.312;2023-05-16T14:46:32;16.60;86.10
31729;DHT22;18309;43.658;1.312;2023-05-16T14:48:58;16.50;85.70
31729;DHT22;18309;43.658;1.312;2023-05-16T14:51:24;16.40;84.30
31729;DHT22;18309;43.658;1.312;2023-05-16T14:53:49;16.50;83.70
31729;DHT22;18309;43.658;1.312;2023-05-16T14:56:19;16.70;82.20
31729;DHT22;18309;43.658;1.312;2023-05-16T14:58:46;17.10;82.50
31729;DHT22;18309;43.658;1.312;2023-05-16T15:01:11;17.10;82.50
31729;DHT22;18309;43.658;1.312;2023-05-16T15:03:37;16.80;85.40
31729;DHT22;18309;43.658;1.312;2023-05-16T15:06:04;16.70;86.90
31729;DHT22;18309;43.658;1.312;2023-05-16T15:08:32;16.70;85.90
31729;DHT22;18309;43.658;1.312;2023-05-16T15:10:59;16.70;83.90
31729;DHT22;18309;43.658;1.312;2023-05-16T15:13:25;16.90;83.40
31729;DHT22;18309;43.658;1.312;2023-05-16T15:15:51;17.00;84.60
31729;DHT22;18309;43.658;1.312;2023-05-16T15:18:16;17.00;83.50
31729;DHT22;18309;43.658;1.312;2023-05-16T15:20:42;16.80;84.30
31729;DHT22;18309;43.658;1.312;2023-05-16T15:23:08;16.70;84.00
31729;DHT22;18309;43.658;1.312;2023-05-16T15:25:34;16.70;84.40
31729;DHT22;18309;43.658;1.312;2023-05-16T15:28:00;17.00;84.10
31729;DHT22;18309;43.658;1.312;2023-05-16T15:30:26;17.40;83.70
31729;DHT22;18309;43.658;1.312;2023-05-16T15:32:51;17.30;82.70
31729;DHT22;18309;43.658;1.312;2023-05-16T15:35:17;17.10;83.90
31729;DHT22;18309;43.658;1.312;2023-05-16T15:37:43;16.90;81.60
31729;DHT22;18309;43.658;1.312;2023-05-16T15:40:09;16.80;83.90
31729;DHT22;18309;43.658;1.312;2023-05-16T15:42:35;16.60;83.10
31729;DHT22;18309;43.658;1.312;2023-05-16T15:45:01;16.50;85.50
31729;DHT22;18309;43.658;1.312;2023-05-16T15:47:27;16.60;84.90
31729;DHT22;18309;43.658;1.312;2023-05-16T15:49:53;16.80;82.90
31729;DHT22;18309;43.658;1.312;2023-05-16T15:52:18;17.00;81.10
31729;DHT22;18309;43.658;1.312;2023-05-16T15:54:44;17.30;80.60
31729;DHT22;18309;43.658;1.312;2023-05-16T15:57:10;17.20;81.60
31729;DHT22;18309;43.658;1.312;2023-05-16T15:59:36;17.40;81.90
31729;DHT22;18309;43.658;1.312;2023-05-16T16:02:02;17.20;80.00